Time;durP1;ratioP1;P1;durP2;ratioP2;P2;SDS_P1;SDS_P2;PMS_P1;PMS_P2;Temp;Humidity;BMP_temperature;BMP_pressure;BME280_temperature;BME280_humidity;BME280_pressure;Samples;Min_cycle;Max_cycle;Signal;HPM_P1;HPM_P2
2023/05/18 04:00:37;;;;;;;5.18;2.53;;;7.80;99.90;;;;;;5969579;23;19960;31
2023/05/18 04:03:03;;;;;;;6.20;3.00;;;7.80;99.90;;;;;;4942589;29;20405;-67
2023/05/18 04:05:29;;;;;;;7.65;2.70;;;7.80;99.90;;;;;;4931515;29;20024;-67
2023/05/18 04:07:56;;;;;;;5.30;2.43;;;7.80;99.90;;;;;;4938109;29;20039;-66
2023/05/18 04:10:22;;;;;;;8.07;2.70;;;7.80;99.90;;;;;;4937928;29;20275;-67
2023/05/18 04:12:48;;;;;;;9.35;3.35;;;7.80;99.90;;;;;;4938916;29;20071;-66
2023/05/18 04:15:13;;;;;;;7.85;3.50;;;7.80;99.90;;;;;;4938192;29;20070;-69
2023/05/18 04:17:44;;;;;;;5.90;2.77;;;7.90;99.90;;;;;;4939270;29;20396;-69
2023/05/18 04:20:13;;;;;;;7.40;2.90;;;7.90;99.90;;;;;;4939009;29;20264;-69
2023/05/18 04:22:47;;;;;;;13.77;3.22;;;8.00;99.90;;;;;;4938484;29;20074;-69
2023/05/18 04:25:14;;;;;;;8.65;2.40;;;8.00;99.90;;;;;;4938862;29;20032;-69
2023/05/18 04:27:41;;;;;;;5.60;2.60;;;8.10;99.90;;;;;;4939182;29;20031;-69
2023/05/18 04:30:09;;;;;;;10.80;3.05;;;8.10;99.90;;;;;;4937476;29;20035;-69
2023/05/18 04:32:35;;;;;;;6.97;2.40;;;8.20;99.90;;;;;;4938814;29;20508;-69
2023/05/18 04:35:05;;;;;;;8.40;2.88;;;8.20;99.90;;;;;;4938737;29;20384;-69
2023/05/18 04:37:32;;;;;;;7.00;2.40;;;8.30;99.90;;;;;;4923535;29;20039;-69
2023/05/18 04:40:01;;;;;;;;;;;8.30;99.90;;;;;;4919919;29;20032;-69
2023/05/18 04:42:27;;;;;;;9.13;2.47;;;8.20;99.90;;;;;;4918478;29;20373;-69
2023/05/18 04:44:53;;;;;;;;;;;8.20;99.90;;;;;;4934468;29;20028;-69
2023/05/18 04:47:20;;;;;;;7.13;2.08;;;8.30;99.90;;;;;;4919461;29;19914;-69
2023/05/18 04:49:47;;;;;;;9.85;2.88;;;8.30;99.90;;;;;;4935396;29;20039;-70
2023/05/18 04:52:13;;;;;;;9.55;2.60;;;8.40;99.90;;;;;;4935278;29;20028;-69
2023/05/18 04:54:40;;;;;;;9.15;2.30;;;8.40;99.90;;;;;;4924392;29;20083;-69
2023/05/18 04:57:06;;;;;;;9.70;2.83;;;8.40;99.90;;;;;;4936885;29;20473;-70
2023/05/18 04:59:35;;;;;;;12.10;2.78;;;8.30;99.90;;;;;;4921358;29;20034;-69
2023/05/18 05:02:04;;;;;;;8.48;2.88;;;8.40;99.90;;;;;;4919056;29;20036;-70
2023/05/18 05:04:30;;;;;;;9.43;2.70;;;8.40;99.90;;;;;;4919300;29;20071;-70
2023/05/18 05:06:55;;;;;;;6.57;2.30;;;8.50;99.90;;;;;;4919006;29;20532;-70
2023/05/18 05:09:21;;;;;;;7.43;2.50;;;8.40;99.90;;;;;;4933692;29;20634;-70
2023/05/18 05:11:46;;;;;;;9.30;2.60;;;8.50;99.90;;;;;;4918538;29;20028;-70
2023/05/18 05:14:12;;;;;;;7.80;2.57;;;8.50;99.90;;;;;;4921084;29;20052;-70
2023/05/18 05:16:38;;;;;;;12.20;3.20;;;8.50;99.90;;;;;;4922401;29;20067;-69
2023/05/18 05:19:04;;;;;;;6.95;2.38;;;8.60;99.90;;;;;;4940916;29;20031;-70
2023/05/18 05:21:30;;;;;;;7.53;2.90;;;8.50;99.90;;;;;;4922888;29;20028;-70
2023/05/18 05:23:56;;;;;;;9.32;3.10;;;8.60;99.90;;;;;;4937086;29;20039;-69
2023/05/18 05:26:21;;;;;;;11.03;2.77;;;8.60;99.90;;;;;;4921702;29;20378;-70
2023/05/18 05:28:47;;;;;;;9.13;2.90;;;8.70;99.90;;;;;;4934294;29;20126;-69
2023/05/18 05:31:13;;;;;;;11.13;2.85;;;8.70;99.90;;;;;;4921417;29;20048;-69
2023/05/18 05:33:39;;;;;;;8.70;2.80;;;8.80;99.90;;;;;;4933620;29;20495;-69
2023/05/18 05:36:05;;;;;;;8.43;2.40;;;8.90;99.90;;;;;;4921945;29;20272;-68
2023/05/18 05:38:31;;;;;;;7.53;2.85;;;8.90;99.90;;;;;;4938416;29;20028;-69
2023/05/18 05:40:57;;;;;;;7.45;2.60;;;9.00;99.90;;;;;;4937680;29;20102;-69
2023/05/18 05:43:22;;;;;;;8.13;2.58;;;9.00;99.90;;;;;;4936246;29;20508;-69
2023/05/18 05:45:48;;;;;;;7.57;2.67;;;9.20;99.90;;;;;;4938848;29;20028;-69
2023/05/18 05:48:14;;;;;;;9.93;2.40;;;9.20;99.90;;;;;;4938358;29;20027;-70
2023/05/18 05:50:39;;;;;;;10.73;2.30;;;9.30;99.90;;;;;;4940575;29;20035;-71
2023/05/18 05:53:05;;;;;;;10.88;2.80;;;9.30;99.90;;;;;;4938205;29;20441;-69
2023/05/18 05:55:30;;;;;;;9.53;2.70;;;9.40;99.90;;;;;;4935930;29;20397;-69
2023/05/18 05:57:56;;;;;;;10.93;2.93;;;9.50;99.90;;;;;;4937321;29;20042;-69
2023/05/18 06:00:23;;;;;;;8.63;2.53;;;9.60;99.90;;;;;;4936895;29;20369;-69
2023/05/18 06:02:50;;;;;;;8.05;2.08;;;9.70;99.90;;;;;;4937564;29;20131;-69
2023/05/18 06:05:15;;;;;;;12.95;3.17;;;9.80;99.90;;;;;;4944861;29;20066;-69
2023/05/18 06:07:41;;;;;;;12.15;2.20;;;9.80;99.90;;;;;;4940199;29;20103;-69
2023/05/18 06:10:07;;;;;;;8.87;2.53;;;9.90;99.90;;;;;;4922909;29;20075;-69
2023/05/18 06:12:32;;;;;;;8.10;2.35;;;10.00;99.90;;;;;;4918580;29;20028;-69
2023/05/18 06:14:58;;;;;;;14.97;2.57;;;10.10;99.90;;;;;;4918054;29;20043;-69
2023/05/18 06:17:26;;;;;;;9.70;2.07;;;10.10;99.90;;;;;;4918667;29;20629;-69
2023/05/18 06:19:52;;;;;;;5.63;2.20;;;10.20;99.90;;;;;;4918338;29;20036;-69
2023/05/18 06:22:18;;;;;;;;;;;10.20;99.90;;;;;;4919801;29;20028;-69
2023/05/18 06:24:43;;;;;;;10.05;2.33;;;10.30;99.90;;;;;;4918024;29;19992;-69
2023/05/18 06:27:10;;;;;;;9.63;2.10;;;10.40;99.90;;;;;;4934259;29;20489;-70
2023/05/18 06:29:36;;;;;;;11.88;3.47;;;10.40;99.90;;;;;;4921318;29;20275;-70
2023/05/18 06:32:01;;;;;;;11.10;2.75;;;10.50;99.90;;;;;;4920676;29;20478;-70
2023/05/18 06:34:27;;;;;;;10.13;2.28;;;10.60;99.90;;;;;;4921409;29;20066;-70
2023/05/18 06:36:53;;;;;;;13.23;2.23;;;10.60;99.90;;;;;;4927124;29;20035;-72
2023/05/18 06:39:19;;;;;;;7.60;1.92;;;10.70;99.90;;;;;;4930658;29;20056;-71
2023/05/18 06:41:45;;;;;;;11.83;2.37;;;10.70;99.90;;;;;;4934992;29;20038;-71
2023/05/18 06:44:11;;;;;;;6.93;1.90;;;10.90;99.90;;;;;;4936708;29;20150;-71
2023/05/18 06:46:37;;;;;;;11.52;2.63;;;11.00;99.90;;;;;;4947974;29;20055;-70
2023/05/18 06:49:03;;;;;;;12.93;2.38;;;11.00;99.90;;;;;;4937077;29;20378;-70
2023/05/18 06:51:30;;;;;;;9.48;2.58;;;11.00;99.90;;;;;;4923391;29;20056;-68
2023/05/18 06:53:56;;;;;;;7.32;2.15;;;11.20;99.90;;;;;;4923215;29;20036;-70
2023/05/18 06:56:22;;;;;;;4.28;1.58;;;11.20;99.90;;;;;;4939487;29;20090;-70
2023/05/18 06:58:48;;;;;;;5.07;1.95;;;11.20;99.90;;;;;;4963346;28;20039;-66
2023/05/18 07:01:14;;;;;;;8.05;2.38;;;11.20;99.90;;;;;;4954107;28;20483;-71
2023/05/18 07:03:39;;;;;;;10.05;2.28;;;11.30;99.90;;;;;;4932269;29;20128;-70
2023/05/18 07:06:05;;;;;;;11.13;2.40;;;11.40;99.90;;;;;;4924738;29;20026;-72
2023/05/18 07:08:31;;;;;;;10.70;2.53;;;11.40;99.90;;;;;;4938162;29;20031;-71
2023/05/18 07:10:58;;;;;;;11.60;2.00;;;11.50;99.90;;;;;;4947587;29;20103;-71
2023/05/18 07:13:24;;;;;;;15.85;2.50;;;11.60;99.90;;;;;;4969656;28;20027;-71
2023/05/18 07:15:49;;;;;;;7.78;2.30;;;11.70;99.90;;;;;;4955251;29;20031;-71
2023/05/18 07:18:15;;;;;;;9.98;2.30;;;11.80;99.90;;;;;;4956341;29;20527;-72
2023/05/18 07:20:40;;;;;;;10.30;2.20;;;11.90;99.90;;;;;;4955457;29;20123;-70
2023/05/18 07:23:06;;;;;;;12.10;2.27;;;12.00;99.90;;;;;;4956321;29;20035;-71
2023/05/18 07:25:32;;;;;;;9.48;2.28;;;12.00;99.90;;;;;;4956121;28;20019;-70
2023/05/18 07:27:58;;;;;;;9.20;2.30;;;12.10;99.90;;;;;;4959622;28;20108;-70
2023/05/18 07:30:25;;;;;;;6.47;2.07;;;12.20;99.90;;;;;;4961195;29;20050;-70
2023/05/18 07:32:51;;;;;;;15.23;2.58;;;12.40;99.90;;;;;;4959997;28;20023;-71
2023/05/18 07:35:18;;;;;;;8.73;2.67;;;12.40;99.90;;;;;;4959716;28;20057;-72
2023/05/18 07:37:44;;;;;;;8.02;2.13;;;12.50;99.90;;;;;;4942097;29;20023;-70
2023/05/18 07:40:11;;;;;;;8.60;2.47;;;12.50;99.90;;;;;;4940337;29;20034;-70
2023/05/18 07:42:38;;;;;;;8.68;2.30;;;12.60;99.90;;;;;;4940149;29;20271;-70
2023/05/18 07:45:05;;;;;;;10.55;2.28;;;12.70;99.90;;;;;;4940643;29;20536;-70
2023/05/18 07:47:30;;;;;;;9.15;2.10;;;12.90;99.70;;;;;;4941739;29;20470;-70
2023/05/18 07:49:56;;;;;;;10.88;2.28;;;13.00;99.80;;;;;;4940195;29;20160;-70
2023/05/18 07:52:21;;;;;;;9.43;2.60;;;13.10;99.70;;;;;;4937960;29;20086;-71
2023/05/18 07:54:47;;;;;;;14.27;2.37;;;13.30;99.40;;;;;;4938325;29;20027;-71
2023/05/18 07:57:13;;;;;;;10.80;2.20;;;13.60;98.50;;;;;;4939381;29;20059;-69
2023/05/18 07:59:38;;;;;;;8.05;2.35;;;13.90;98.20;;;;;;4938419;29;20396;-70
2023/05/18 08:02:05;;;;;;;13.55;2.60;;;14.30;97.40;;;;;;4945461;29;20036;-71
2023/05/18 08:04:30;;;;;;;;;;;15.50;96.30;;;;;;4949515;29;20035;-70
2023/05/18 08:06:59;;;;;;;7.68;2.25;;;16.80;93.60;;;;;;4938244;29;19918;-69
2023/05/18 08:09:25;;;;;;;7.60;2.42;;;18.20;91.20;;;;;;4922878;29;20074;-70
2023/05/18 08:11:51;;;;;;;9.50;2.70;;;19.40;88.10;;;;;;4921486;29;20063;-70
2023/05/18 08:14:16;;;;;;;9.05;2.15;;;20.50;84.10;;;;;;4922715;29;20032;-71
2023/05/18 08:16:42;;;;;;;9.68;3.00;;;21.90;79.80;;;;;;4922794;29;20024;-70
2023/05/18 08:19:07;;;;;;;9.25;2.33;;;22.80;74.80;;;;;;4926033;29;20393;-71
2023/05/18 08:21:33;;;;;;;9.35;2.33;;;23.10;73.60;;;;;;4925337;29;20063;-71
2023/05/18 08:23:59;;;;;;;;;;;23.40;71.70;;;;;;4926581;29;20021;-70
2023/05/18 08:26:25;;;;;;;9.10;2.75;;;23.10;70.40;;;;;;4923968;29;19915;-70
2023/05/18 08:28:51;;;;;;;7.07;2.60;;;22.80;70.30;;;;;;4926123;29;20017;-71
2023/05/18 08:31:17;;;;;;;;;;;23.20;70.40;;;;;;4927471;29;20084;-71
2023/05/18 08:33:42;;;;;;;6.22;2.30;;;23.70;68.40;;;;;;4928167;29;19911;-70
2023/05/18 08:36:08;;;;;;;;;;;23.70;68.70;;;;;;4932074;29;20021;-71
2023/05/18 08:38:34;;;;;;;7.75;2.67;;;24.40;67.70;;;;;;4925315;29;19965;-71
2023/05/18 08:41:05;;;;;;;9.50;3.00;;;25.90;65.60;;;;;;4924695;29;20059;-70
2023/05/18 08:43:34;;;;;;;6.00;2.47;;;25.80;63.50;;;;;;4923914;29;20024;-70
2023/05/18 08:46:20;;;;;;;6.65;2.10;;;25.90;63.90;;;;;;4924305;29;20084;-71
2023/05/18 08:48:46;;;;;;;9.87;2.90;;;27.00;61.60;;;;;;4921872;29;20417;-71
2023/05/18 08:51:13;;;;;;;7.07;2.72;;;26.60;60.90;;;;;;4921940;29;20626;-70
2023/05/18 08:53:41;;;;;;;9.23;3.38;;;25.80;60.80;;;;;;4922106;29;20110;-71
2023/05/18 08:56:08;;;;;;;8.48;2.60;;;25.30;61.70;;;;;;4921883;29;20036;-70
2023/05/18 08:58:42;;;;;;;10.57;2.53;;;25.30;61.80;;;;;;4921385;29;20076;-71
2023/05/18 09:01:09;;;;;;;5.03;2.42;;;25.30;61.70;;;;;;4920291;29;20083;-71
2023/05/18 09:03:36;;;;;;;9.43;3.20;;;25.10;61.80;;;;;;4923347;29;20034;-71
2023/05/18 09:06:03;;;;;;;7.03;2.67;;;25.90;61.40;;;;;;4924731;29;20062;-70
2023/05/18 09:08:29;;;;;;;6.20;2.50;;;26.70;61.30;;;;;;4939347;29;20115;-71
2023/05/18 09:10:57;;;;;;;9.95;2.88;;;27.20;59.50;;;;;;4943027;29;20028;-70
2023/05/18 09:13:22;;;;;;;7.32;2.40;;;26.60;59.30;;;;;;4940913;29;20038;-71
2023/05/18 09:15:50;;;;;;;6.40;2.70;;;26.80;60.30;;;;;;4941618;29;20052;-71
2023/05/18 09:18:15;;;;;;;8.30;2.60;;;26.70;59.50;;;;;;4940897;29;20390;-70
2023/05/18 09:20:41;;;;;;;8.40;3.00;;;27.10;59.00;;;;;;4939703;29;20027;-69
2023/05/18 09:23:07;;;;;;;7.82;2.83;;;26.10;59.20;;;;;;4937456;29;20481;-69
2023/05/18 09:25:34;;;;;;;;;;;25.40;60.30;;;;;;4940746;29;20386;-70
2023/05/18 09:28:00;;;;;;;9.77;3.00;;;25.40;60.80;;;;;;4941764;29;19914;-70
2023/05/18 09:30:26;;;;;;;7.63;3.53;;;26.00;59.80;;;;;;4940363;29;20043;-70
2023/05/18 09:32:52;;;;;;;7.95;2.70;;;26.20;59.80;;;;;;4944954;29;20012;-70
2023/05/18 09:35:17;;;;;;;8.18;3.00;;;26.00;60.10;;;;;;4940452;29;20032;-70
2023/05/18 09:37:43;;;;;;;7.35;3.10;;;26.60;59.20;;;;;;4940703;29;20024;-71
2023/05/18 09:40:09;;;;;;;8.63;2.97;;;27.00;58.60;;;;;;4938939;29;20031;-71
2023/05/18 09:42:38;;;;;;;6.47;2.60;;;27.40;58.60;;;;;;4939802;29;20494;-70
2023/05/18 09:45:25;;;;;;;6.78;2.75;;;28.50;57.20;;;;;;4938199;29;20036;-70
2023/05/18 09:47:52;;;;;;;8.13;2.67;;;28.50;56.70;;;;;;4938911;29;20102;-70
2023/05/18 09:50:25;;;;;;;8.82;2.72;;;28.50;56.30;;;;;;4935935;29;20032;-70
2023/05/18 09:52:51;;;;;;;9.35;3.35;;;28.80;55.70;;;;;;4938030;29;20160;-71
2023/05/18 09:55:19;;;;;;;8.88;3.13;;;28.10;55.60;;;;;;4938670;29;20104;-73
2023/05/18 09:57:47;;;;;;;8.45;3.15;;;27.00;56.10;;;;;;4937817;29;20027;-72
2023/05/18 10:00:18;;;;;;;8.75;3.17;;;26.10;57.80;;;;;;4938534;29;20031;-72
2023/05/18 10:02:50;;;;;;;10.30;2.78;;;25.60;58.00;;;;;;4939235;29;20039;-71
2023/05/18 10:05:28;;;;;;;9.45;3.22;;;25.70;57.90;;;;;;4939349;29;20102;-72
2023/05/18 10:07:54;;;;;;;9.98;3.03;;;25.30;58.40;;;;;;4937144;29;20461;-71
2023/05/18 10:10:22;;;;;;;8.73;2.83;;;24.40;58.70;;;;;;4937920;29;20031;-70
2023/05/18 10:12:50;;;;;;;9.90;2.88;;;24.60;58.50;;;;;;4937273;29;20118;-71
2023/05/18 10:15:21;;;;;;;8.70;2.78;;;25.10;58.60;;;;;;4939322;29;20052;-71
2023/05/18 10:17:49;;;;;;;7.60;3.13;;;26.00;59.30;;;;;;4939119;29;20020;-68
2023/05/18 10:20:18;;;;;;;10.93;3.00;;;26.60;57.00;;;;;;4933252;29;20024;-71
2023/05/18 10:22:46;;;;;;;8.70;2.80;;;26.60;56.70;;;;;;4935192;29;20484;-70
2023/05/18 10:25:17;;;;;;;9.20;3.28;;;26.60;55.90;;;;;;4937468;29;20027;-73
2023/05/18 10:27:43;;;;;;;7.60;2.92;;;26.60;56.00;;;;;;4952219;29;20047;-71
2023/05/18 10:30:10;;;;;;;8.10;3.00;;;26.40;55.20;;;;;;4939897;29;20315;-72
2023/05/18 10:32:37;;;;;;;7.53;2.80;;;26.30;55.20;;;;;;4939638;29;20020;-71
2023/05/18 10:35:04;;;;;;;9.27;3.20;;;24.90;56.00;;;;;;4938318;29;20083;-73
2023/05/18 10:37:32;;;;;;;12.23;3.03;;;25.30;56.60;;;;;;4921145;29;20039;-69
2023/05/18 10:40:00;;;;;;;9.15;2.58;;;25.10;56.10;;;;;;4917401;29;20107;-69
2023/05/18 10:42:28;;;;;;;6.43;2.85;;;24.30;57.20;;;;;;4917370;29;20032;-69
2023/05/18 10:44:56;;;;;;;10.38;3.10;;;24.70;57.90;;;;;;4932929;29;20025;-70
2023/05/18 10:47:26;;;;;;;6.40;2.67;;;24.90;56.70;;;;;;4944510;23;20036;-69
2023/05/18 10:49:53;;;;;;;8.95;2.78;;;24.40;57.20;;;;;;4926417;29;20112;-68
2023/05/18 10:52:19;;;;;;;6.45;2.25;;;23.90;58.70;;;;;;4936338;29;20031;-67
2023/05/18 10:54:46;;;;;;;7.07;2.92;;;24.80;57.80;;;;;;4937652;29;20030;-68
2023/05/18 10:57:14;;;;;;;6.18;2.50;;;25.40;56.20;;;;;;4935017;29;20026;-72
2023/05/18 10:59:42;;;;;;;7.63;2.83;;;25.10;56.10;;;;;;4936135;29;20032;-73
2023/05/18 11:02:12;;;;;;;7.25;2.28;;;24.50;57.00;;;;;;4937123;29;20114;-73
2023/05/18 11:04:39;;;;;;;10.00;2.45;;;24.40;57.60;;;;;;4937863;29;20377;-72
2023/05/18 11:07:09;;;;;;;6.80;2.35;;;23.30;57.80;;;;;;4937721;29;20028;-72
2023/05/18 11:09:35;;;;;;;8.52;2.50;;;22.30;59.40;;;;;;4940866;29;20074;-73
2023/05/18 11:12:01;;;;;;;7.97;2.85;;;21.70;61.10;;;;;;4941421;29;20031;-73
2023/05/18 11:14:31;;;;;;;10.52;3.10;;;20.90;62.00;;;;;;4941168;29;20485;-72
2023/05/18 11:17:20;;;;;;;9.98;3.13;;;20.80;62.90;;;;;;4956966;29;20031;-72
2023/05/18 11:22:50;;;;;;;8.05;3.13;;;21.00;63.00;;;;;;4943227;29;20446;-73
2023/05/18 11:25:31;;;;;;;8.30;2.65;;;20.50;63.00;;;;;;4941575;29;20024;-73
2023/05/18 11:28:12;;;;;;;7.38;2.35;;;20.00;64.30;;;;;;4957782;28;20020;-74
2023/05/18 11:30:40;;;;;;;9.05;2.72;;;19.50;65.90;;;;;;4942452;29;20445;-72
2023/05/18 11:33:14;;;;;;;10.70;2.90;;;19.20;66.70;;;;;;4942248;29;20024;-72
2023/05/18 11:35:59;;;;;;;8.40;2.80;;;19.10;66.10;;;;;;4945903;29;20043;-74
2023/05/18 11:39:05;;;;;;;10.05;2.97;;;19.00;65.90;;;;;;4947627;29;20024;-71
2023/05/18 11:41:38;;;;;;;9.73;2.33;;;18.80;66.30;;;;;;4921495;29;20040;-70
2023/05/18 11:44:15;;;;;;;7.95;2.70;;;19.00;66.90;;;;;;4905375;29;20551;-72
2023/05/18 11:46:51;;;;;;;;;;;18.90;66.20;;;;;;4921348;29;20074;-72
2023/05/18 11:49:19;;;;;;;7.63;2.20;;;18.80;66.70;;;;;;4906889;29;20352;-72
2023/05/18 11:52:07;;;;;;;7.32;2.28;;;18.60;66.80;;;;;;4921414;29;20548;-72
2023/05/18 11:54:53;;;;;;;6.50;2.20;;;18.40;66.80;;;;;;4921191;29;20032;-71
2023/05/18 11:57:23;;;;;;;7.88;2.97;;;18.50;67.50;;;;;;4905157;29;20036;-72
2023/05/18 11:59:57;;;;;;;9.40;2.70;;;18.60;66.70;;;;;;4907409;29;20130;-73
2023/05/18 12:02:25;;;;;;;7.35;2.17;;;18.60;67.70;;;;;;4905477;29;20054;-74
2023/05/18 12:04:56;;;;;;;9.23;2.40;;;18.60;67.80;;;;;;4920727;29;20040;-75
2023/05/18 12:07:24;;;;;;;8.30;2.38;;;18.80;67.60;;;;;;4905290;29;20150;-76
2023/05/18 12:09:50;;;;;;;7.90;2.30;;;18.90;66.80;;;;;;4905369;29;20032;-76
2023/05/18 12:12:18;;;;;;;7.70;2.63;;;18.90;67.00;;;;;;4905980;29;20036;-75
2023/05/18 12:14:51;;;;;;;5.38;2.28;;;19.00;67.20;;;;;;4902138;29;20036;-74
2023/05/18 12:17:17;;;;;;;7.38;2.42;;;18.70;67.30;;;;;;4902524;29;20465;-76
2023/05/18 12:19:44;;;;;;;9.38;2.45;;;18.60;67.00;;;;;;4918616;29;20059;-74
2023/05/18 12:22:11;;;;;;;9.15;2.78;;;18.60;67.50;;;;;;4918798;29;20032;-74
2023/05/18 12:24:38;;;;;;;11.95;2.70;;;18.60;67.60;;;;;;4918656;29;20028;-74
2023/05/18 12:27:06;;;;;;;10.85;2.65;;;18.60;67.20;;;;;;4924279;29;20060;-74
2023/05/18 12:29:32;;;;;;;6.82;2.30;;;18.70;67.60;;;;;;4940548;29;20024;-72
2023/05/18 12:31:58;;;;;;;9.52;2.30;;;18.70;66.40;;;;;;4941522;29;20385;-72
2023/05/18 12:34:29;;;;;;;11.35;2.70;;;18.60;67.20;;;;;;4941109;29;20055;-75
2023/05/18 12:36:55;;;;;;;7.45;2.13;;;18.80;67.20;;;;;;4938388;29;20516;-74
2023/05/18 12:39:23;;;;;;;7.68;2.10;;;18.80;66.60;;;;;;4938559;29;20031;-77
2023/05/18 12:41:49;;;;;;;6.50;2.35;;;18.80;67.00;;;;;;4939987;29;20031;-75
2023/05/18 12:44:15;;;;;;;5.82;2.25;;;18.80;65.80;;;;;;4938332;29;20027;-71
2023/05/18 12:46:42;;;;;;;7.88;1.98;;;18.60;65.60;;;;;;4937201;29;20035;-73
2023/05/18 12:49:07;;;;;;;8.82;2.38;;;18.60;66.30;;;;;;4925647;29;20036;-73
2023/05/18 12:51:34;;;;;;;7.78;2.75;;;18.60;66.10;;;;;;4920845;29;20477;-73
2023/05/18 12:54:04;;;;;;;9.68;1.85;;;18.80;66.20;;;;;;4919234;29;20605;-72
2023/05/18 12:57:08;;;;;;;6.90;2.40;;;18.90;66.40;;;;;;4937044;29;20063;-72
2023/05/18 12:59:34;;;;;;;7.05;2.33;;;18.90;67.20;;;;;;4901347;29;20032;-72
2023/05/18 13:02:00;;;;;;;11.13;2.50;;;18.80;67.00;;;;;;4900997;29;20028;-72
2023/05/18 13:04:34;;;;;;;5.65;2.40;;;18.70;66.30;;;;;;4900950;29;20043;-71
2023/05/18 13:06:59;;;;;;;9.90;2.40;;;18.70;66.10;;;;;;4916707;29;20489;-71
2023/05/18 13:09:25;;;;;;;6.03;2.15;;;18.70;66.00;;;;;;4897338;29;20032;-72
2023/05/18 13:11:51;;;;;;;6.82;2.35;;;18.80;66.40;;;;;;4900285;29;20497;-72
2023/05/18 13:14:23;;;;;;;8.93;2.10;;;18.90;65.90;;;;;;4916716;29;20406;-72
2023/05/18 13:16:51;;;;;;;8.18;2.72;;;18.90;65.50;;;;;;4915900;29;20112;-72
2023/05/18 13:19:18;;;;;;;7.05;2.22;;;18.90;66.20;;;;;;4916451;29;20108;-72
2023/05/18 13:21:45;;;;;;;8.43;2.63;;;18.90;66.10;;;;;;4907608;29;20035;-72
2023/05/18 13:24:10;;;;;;;;;;;19.00;66.30;;;;;;4912148;29;20489;-71
2023/05/18 13:26:35;;;;;;;7.57;1.88;;;19.00;66.00;;;;;;4900592;29;19907;-71
2023/05/18 13:29:01;;;;;;;12.40;1.90;;;19.00;65.80;;;;;;4916689;29;20521;-71
2023/05/18 13:31:28;;;;;;;5.32;1.83;;;19.00;66.10;;;;;;4935524;29;20385;-71
2023/05/18 13:33:54;;;;;;;6.07;2.10;;;19.00;65.20;;;;;;4936956;29;20037;-70
2023/05/18 13:36:20;;;;;;;6.95;2.20;;;19.10;65.10;;;;;;4936305;29;20523;-71
2023/05/18 13:38:45;;;;;;;7.15;2.55;;;19.00;65.00;;;;;;4934534;29;20040;-72
2023/05/18 13:41:13;;;;;;;7.47;1.80;;;19.20;64.80;;;;;;4929712;29;20016;-72
2023/05/18 13:43:41;;;;;;;8.35;2.05;;;19.30;64.00;;;;;;4927664;29;20032;-72
2023/05/18 13:46:13;;;;;;;8.07;2.22;;;19.50;63.40;;;;;;4936746;29;20020;-72
2023/05/18 13:48:41;;;;;;;8.45;2.22;;;19.40;63.70;;;;;;4937049;29;20039;-72
2023/05/18 13:51:07;;;;;;;6.05;1.85;;;19.30;64.20;;;;;;4938113;29;20063;-72
2023/05/18 13:53:32;;;;;;;6.50;2.30;;;19.40;64.20;;;;;;4936283;29;20075;-72
2023/05/18 13:55:58;;;;;;;9.63;2.28;;;19.50;63.80;;;;;;4936657;29;20295;-74
2023/05/18 13:58:23;;;;;;;7.65;2.20;;;19.70;63.60;;;;;;4938082;29;20044;-71
2023/05/18 14:00:49;;;;;;;8.52;2.50;;;19.60;63.60;;;;;;4936914;29;20041;-77
2023/05/18 14:03:16;;;;;;;6.88;2.05;;;19.60;64.50;;;;;;4940034;29;20122;-74
2023/05/18 14:05:42;;;;;;;9.15;2.00;;;19.70;64.90;;;;;;4946666;29;20030;-78
2023/05/18 14:08:08;;;;;;;6.70;2.10;;;19.80;64.80;;;;;;4945211;29;20024;-77
2023/05/18 14:10:33;;;;;;;7.30;2.35;;;19.90;64.80;;;;;;4946951;29;20064;-72
2023/05/18 14:12:59;;;;;;;7.25;2.30;;;19.70;64.30;;;;;;4946023;29;20036;-74
2023/05/18 14:15:25;;;;;;;5.60;2.08;;;19.60;63.10;;;;;;4950416;29;20059;-73
2023/05/18 14:17:50;;;;;;;7.82;2.30;;;19.40;64.10;;;;;;4944282;29;20120;-71
2023/05/18 14:20:16;;;;;;;7.20;2.13;;;19.30;64.10;;;;;;4935974;29;20035;-77
2023/05/18 14:22:41;;;;;;;7.97;2.58;;;19.30;63.70;;;;;;4935714;29;20043;-73
2023/05/18 14:25:07;;;;;;;7.80;1.85;;;19.40;63.70;;;;;;4936708;29;20074;-74
2023/05/18 14:27:33;;;;;;;5.78;2.20;;;19.50;63.30;;;;;;4935729;29;20023;-74
2023/05/18 14:29:58;;;;;;;5.47;2.13;;;19.40;63.00;;;;;;4936565;29;20044;-73
2023/05/18 14:32:24;;;;;;;4.82;1.80;;;19.30;63.90;;;;;;4934985;29;20440;-74
2023/05/18 14:34:50;;;;;;;9.05;2.33;;;19.20;64.20;;;;;;4934639;29;20100;-72
2023/05/18 14:37:17;;;;;;;5.75;2.05;;;19.20;64.70;;;;;;4934866;29;20166;-73
2023/05/18 14:39:42;;;;;;;10.32;2.10;;;19.20;64.70;;;;;;4931648;29;20034;-73
2023/05/18 14:42:08;;;;;;;7.40;2.22;;;19.20;64.20;;;;;;4933601;29;20036;-72
2023/05/18 14:44:34;;;;;;;7.35;1.95;;;19.20;64.70;;;;;;4935282;29;20037;-75
2023/05/18 14:47:00;;;;;;;5.78;1.90;;;19.30;64.20;;;;;;4935360;29;20122;-73
2023/05/18 14:49:25;;;;;;;6.38;2.05;;;19.30;63.80;;;;;;4935249;29;20099;-74
2023/05/18 14:51:51;;;;;;;7.72;2.25;;;19.40;63.80;;;;;;4935102;29;20082;-74
2023/05/18 14:54:17;;;;;;;6.22;1.80;;;19.40;64.30;;;;;;4935155;29;20079;-74
2023/05/18 14:56:43;;;;;;;7.32;2.90;;;19.50;64.20;;;;;;4934957;29;20038;-73
2023/05/18 14:59:09;;;;;;;7.40;2.10;;;19.40;63.90;;;;;;4935510;29;20031;-72
2023/05/18 15:01:35;;;;;;;7.55;2.17;;;19.40;63.90;;;;;;4934981;29;20031;-71
2023/05/18 15:04:04;;;;;;;6.65;2.25;;;19.30;64.10;;;;;;4938009;29;20392;-77
2023/05/18 15:06:30;;;;;;;9.15;2.40;;;19.20;64.10;;;;;;4939525;29;20115;-75
2023/05/18 15:08:56;;;;;;;8.02;2.22;;;19.20;64.50;;;;;;4936764;29;20027;-76
2023/05/18 15:11:21;;;;;;;6.78;2.10;;;19.30;64.70;;;;;;4936888;29;20043;-76
2023/05/18 15:13:48;;;;;;;10.65;2.25;;;19.20;64.90;;;;;;4936582;29;20559;-76
2023/05/18 15:16:14;;;;;;;8.18;2.17;;;19.20;63.80;;;;;;4937896;29;20036;-75
2023/05/18 15:18:40;;;;;;;6.63;2.30;;;19.20;64.30;;;;;;4936180;29;20433;-76
2023/05/18 15:21:06;;;;;;;7.43;2.15;;;19.20;64.50;;;;;;4937183;29;20058;-75
2023/05/18 15:23:31;;;;;;;12.00;2.67;;;19.30;64.60;;;;;;4936616;29;20548;-76
2023/05/18 15:25:57;;;;;;;7.43;2.43;;;19.20;64.20;;;;;;4936607;29;20019;-76
2023/05/18 15:28:22;;;;;;;7.03;1.92;;;19.30;63.60;;;;;;4937607;29;20260;-76
2023/05/18 15:30:48;;;;;;;6.10;2.38;;;19.20;62.90;;;;;;4938447;29;20032;-77
2023/05/18 15:33:14;;;;;;;5.43;2.08;;;19.20;63.50;;;;;;4938361;29;20024;-76
2023/05/18 15:35:40;;;;;;;7.82;2.28;;;19.20;63.80;;;;;;4936594;29;20050;-77
2023/05/18 15:38:06;;;;;;;5.95;2.20;;;19.20;63.90;;;;;;4936297;29;20485;-77
2023/05/18 15:40:31;;;;;;;8.32;2.33;;;19.30;63.40;;;;;;4936654;29;20552;-77
2023/05/18 15:42:57;;;;;;;6.20;2.55;;;19.30;63.60;;;;;;4935924;29;20477;-75
2023/05/18 15:45:22;;;;;;;10.13;2.33;;;19.30;64.30;;;;;;4931106;29;20019;-76
2023/05/18 15:47:48;;;;;;;8.88;2.72;;;19.30;64.20;;;;;;4935342;29;20127;-77
2023/05/18 15:50:13;;;;;;;6.75;1.75;;;19.30;64.40;;;;;;4939418;29;20053;-76
2023/05/18 15:52:40;;;;;;;8.75;2.20;;;19.30;64.40;;;;;;4939615;29;20031;-77
2023/05/18 15:55:05;;;;;;;;;;;19.40;63.80;;;;;;4939863;29;20110;-77
2023/05/18 15:57:31;;;;;;;5.38;2.30;;;19.40;64.10;;;;;;4937076;29;20613;-76
2023/05/18 15:59:57;;;;;;;7.63;2.40;;;19.40;64.20;;;;;;4922255;29;20024;-76
2023/05/18 16:02:23;;;;;;;8.60;2.30;;;19.40;63.80;;;;;;4939174;29;20039;-75
2023/05/18 16:04:48;;;;;;;7.85;2.25;;;19.30;64.20;;;;;;4938841;29;20059;-76
2023/05/18 16:07:14;;;;;;;4.82;1.92;;;19.10;64.00;;;;;;4944628;29;20039;-76
2023/05/18 16:09:39;;;;;;;10.98;2.70;;;19.00;64.00;;;;;;4947304;29;20043;-75
2023/05/18 16:12:06;;;;;;;6.95;2.15;;;19.00;63.90;;;;;;4951141;29;20042;-76
2023/05/18 16:14:31;;;;;;;;;;;19.00;64.00;;;;;;4940179;29;20034;-75
2023/05/18 16:16:57;;;;;;;8.32;2.72;;;18.90;63.80;;;;;;4945070;29;20010;-76
2023/05/18 16:19:22;;;;;;;5.80;2.20;;;18.90;64.00;;;;;;4944511;29;20020;-75
2023/05/18 16:21:48;;;;;;;9.18;2.97;;;18.90;63.90;;;;;;4935720;29;20119;-75
2023/05/18 16:24:13;;;;;;;10.43;2.97;;;18.90;64.20;;;;;;4934900;29;20055;-75
2023/05/18 16:26:39;;;;;;;9.43;2.50;;;18.80;63.90;;;;;;4934756;29;20180;-75
2023/05/18 16:29:04;;;;;;;6.88;1.98;;;18.90;63.90;;;;;;4934601;29;20769;-75
2023/05/18 16:31:30;;;;;;;8.93;2.17;;;18.90;63.80;;;;;;4934783;29;20553;-75
2023/05/18 16:33:56;;;;;;;10.07;2.60;;;18.90;64.10;;;;;;4934712;29;20080;-75
2023/05/18 16:36:25;;;;;;;6.25;2.10;;;18.80;63.70;;;;;;4938700;29;20028;-74
2023/05/18 16:38:51;;;;;;;6.07;1.58;;;18.80;64.30;;;;;;4938356;29;20417;-73
2023/05/18 16:41:17;;;;;;;7.60;2.53;;;18.80;63.90;;;;;;4933885;29;20020;-74
2023/05/18 16:43:42;;;;;;;8.73;2.30;;;18.70;64.00;;;;;;4922961;29;20023;-74
2023/05/18 16:46:09;;;;;;;7.22;1.52;;;18.70;64.50;;;;;;4937442;29;20035;-74
2023/05/18 16:48:35;;;;;;;6.85;2.45;;;18.70;64.00;;;;;;4967335;23;20047;-71
2023/05/18 16:51:00;;;;;;;8.93;1.90;;;18.70;64.00;;;;;;4979741;28;20101;-71
2023/05/18 16:53:26;;;;;;;8.02;2.38;;;18.70;64.00;;;;;;4978431;28;20384;-72